Airfield :
LOGIN :

Register | Disclaimer

   EN    FR    IT 

 










Legend :    VFR   Marginal VFR   IFR   Intensive IFR   Very Intensive IFR
Visi :
Ceiling :
>= 8 km
>= 3000ft
5 to 8 km
1000 to 3000 ft
1500m to 5 km
500 to 1000 ft
800 to 1500m
200 to 500 ft
< 800m
< 200 ft
Symbols :   Thunderstorms  Fog  Heavy snow  Heavy precipitations  Wind > 20 kt
SIGMETs :     Misc.  Thunderstorms  Icing  Turbulence  Mountain Waves  Volcanic Ashes






- Airport Elevation : 85 ft
- IATA code : SFA


DTTX - Thyna/El Maou - Sfax

CURRENT METAR :
  • 280000Z 10002KT CAVOK 21/16 Q1013

EXPIRED METARs :
  • 272300Z 02003KT 340V050 CAVOK 22/16 Q1013
  • 272200Z 03006KT CAVOK 22/16 Q1013

TAF TAF DTTX
Valid from the 28 at 00:00 until the 29 at 00:00 UTC


272300Z 2800/2824 02003KT CAVOK
PROB30
TEMPO 2802/2812 TSRA FEW023CB
BECMG 2807/2809 18010KT
BECMG 2814/2816 10007KT



MET'MAP, your aeronautical weather chart ! - Copyright ORBIFLY December 2007 - Disclaimer

ORBIFLY MET'MAP TEAM :

Programming & Development : Alexandra Zaïnal
Original concept : Baudouin d'Aumeries
Technical & hardware support : Manuel Goepfert
Assistance : Marc-Olivier Méhu

Contact : metmap@orbifly.com




SOURCES & CREDITS :

   NOAA